Time;durP1;ratioP1;P1;durP2;ratioP2;P2;SDS_P1;SDS_P2;PMS_P1;PMS_P2;Temp;Humidity;BMP_temperature;BMP_pressure;BME280_temperature;BME280_humidity;BME280_pressure;Samples;Min_cycle;Max_cycle;Signal;HPM_P1;HPM_P2
2022/01/19 00:01:07;;;;;;;44.70;19.37;;;7.00;99.90;;;;;;5080561;28;20227;-58
2022/01/19 00:03:35;;;;;;;44.83;18.90;;;7.00;99.90;;;;;;5078361;28;20203;-56
2022/01/19 00:06:02;;;;;;;49.57;19.33;;;6.90;99.90;;;;;;5077232;28;20294;-59
2022/01/19 00:08:29;;;;;;;41.83;18.90;;;6.90;99.90;;;;;;5083720;28;20702;-56
2022/01/19 00:10:57;;;;;;;38.17;19.37;;;6.90;99.90;;;;;;5081656;28;20896;-57
2022/01/19 00:13:25;;;;;;;37.63;19.57;;;6.90;99.90;;;;;;5080300;28;20242;-58
2022/01/19 00:15:53;;;;;;;44.33;19.63;;;6.90;99.90;;;;;;5080499;28;20199;-58
2022/01/19 00:18:22;;;;;;;46.17;20.27;;;6.90;99.90;;;;;;5079688;28;21075;-56
2022/01/19 00:20:52;;;;;;;48.10;18.70;;;6.90;99.90;;;;;;5077465;28;20247;-55
2022/01/19 00:23:19;;;;;;;42.97;21.10;;;7.00;99.90;;;;;;5082433;28;20235;-57
2022/01/19 00:25:47;;;;;;;42.47;18.67;;;6.90;99.90;;;;;;5080368;28;20260;-57
2022/01/19 00:28:16;;;;;;;39.90;19.40;;;6.90;99.90;;;;;;5080286;28;20290;-57
2022/01/19 00:30:43;;;;;;;41.23;19.03;;;6.80;99.90;;;;;;5078304;28;20212;-57
2022/01/19 00:33:12;;;;;;;36.63;18.10;;;6.90;99.90;;;;;;5080248;28;20221;-57
2022/01/19 00:35:40;;;;;;;39.77;18.57;;;6.90;99.90;;;;;;5076050;28;20689;-57
2022/01/19 00:38:09;;;;;;;37.93;18.67;;;6.80;99.90;;;;;;5081269;28;20575;-58
2022/01/19 00:40:38;;;;;;;38.80;18.40;;;6.70;99.90;;;;;;5077604;28;20306;-55
2022/01/19 00:43:06;;;;;;;39.80;18.10;;;6.80;99.90;;;;;;5079323;28;20203;-56
2022/01/19 00:45:34;;;;;;;39.43;18.40;;;6.80;99.90;;;;;;5080109;28;20739;-56
2022/01/19 00:48:20;;;;;;;41.47;19.07;;;6.80;99.90;;;;;;5082728;28;20251;-57
2022/01/19 00:50:47;;;;;;;36.37;18.13;;;6.60;99.90;;;;;;5080346;28;20650;-57
2022/01/19 00:53:14;;;;;;;40.23;18.50;;;6.70;99.90;;;;;;5082537;28;20847;-57
2022/01/19 00:55:41;;;;;;;36.37;17.17;;;6.60;99.90;;;;;;5082178;28;20625;-56
2022/01/19 00:58:08;;;;;;;37.20;17.67;;;6.50;99.90;;;;;;5082838;28;20672;-58
2022/01/19 01:00:34;;;;;;;33.57;16.83;;;6.40;99.90;;;;;;5084050;28;20532;-57
2022/01/19 01:03:04;;;;;;;34.80;16.23;;;6.30;99.90;;;;;;5079593;28;20213;-57
2022/01/19 01:05:32;;;;;;;29.80;15.80;;;6.20;99.90;;;;;;5080563;28;20665;-56
2022/01/19 01:07:59;;;;;;;32.87;16.20;;;6.10;99.90;;;;;;5082552;28;20213;-56
2022/01/19 01:10:26;;;;;;;38.20;17.43;;;6.00;99.90;;;;;;5083870;28;20602;-56
2022/01/19 01:12:55;;;;;;;41.60;18.10;;;6.10;99.90;;;;;;5082006;28;20276;-57
2022/01/19 01:20:38;;;;;;;34.57;16.87;;;6.10;99.90;;;;;;5084386;28;20284;-55
2022/01/19 01:23:06;;;;;;;40.77;17.40;;;6.00;99.90;;;;;;5088195;28;20204;-57
2022/01/19 01:25:33;;;;;;;44.73;19.13;;;5.90;99.90;;;;;;5083899;28;20274;-57
2022/01/19 01:28:00;;;;;;;33.40;17.33;;;6.00;99.90;;;;;;5088227;28;21079;-57
2022/01/19 01:30:27;;;;;;;36.50;17.07;;;6.00;99.90;;;;;;5087157;28;20204;-56
2022/01/19 01:32:54;;;;;;;30.83;16.10;;;5.90;99.90;;;;;;5088167;28;20213;-57
2022/01/19 01:35:21;;;;;;;35.17;16.10;;;5.80;99.90;;;;;;5082736;28;21092;-57
2022/01/19 01:37:48;;;;;;;29.97;15.13;;;5.70;99.90;;;;;;5085254;28;20252;-57
2022/01/19 01:40:15;;;;;;;35.70;15.47;;;5.80;99.90;;;;;;5086734;28;20295;-56
2022/01/19 01:42:42;;;;;;;29.23;15.63;;;5.80;99.90;;;;;;5065949;28;20713;-56
2022/01/19 01:45:13;;;;;;;29.10;15.20;;;5.80;99.90;;;;;;5074916;28;20841;-57
2022/01/19 01:47:45;;;;;;;32.70;15.10;;;5.80;99.90;;;;;;5067321;28;20711;-57
2022/01/19 01:55:26;;;;;;;27.33;14.97;;;5.70;99.90;;;;;;5066841;28;20201;-56
2022/01/19 01:57:53;;;;;;;22.97;14.40;;;5.60;99.90;;;;;;5072565;28;20601;-57
2022/01/19 02:00:23;;;;;;;32.67;14.93;;;5.60;99.90;;;;;;5068896;28;20238;-57
2022/01/19 02:02:51;;;;;;;27.60;14.00;;;5.60;99.90;;;;;;5071986;28;20740;-56
2022/01/19 02:05:18;;;;;;;22.00;14.30;;;5.60;99.90;;;;;;5044917;28;20676;-56
2022/01/19 02:08:00;;;;;;;26.33;13.63;;;5.50;99.90;;;;;;5091565;28;20652;-55
2022/01/19 02:24:11;;;;;;;23.87;13.23;;;5.10;99.90;;;;;;5091793;28;20274;-57
2022/01/19 02:29:26;;;;;;;21.40;12.60;;;5.20;99.90;;;;;;5092874;28;21052;-57
2022/01/19 02:40:15;;;;;;;18.93;9.63;;;5.10;99.90;;;;;;5089370;28;20289;-57
2022/01/19 02:50:40;;;;;;;9.93;7.37;;;4.40;99.90;;;;;;5091507;28;20205;-57
2022/01/19 02:53:07;;;;;;;9.63;7.57;;;4.40;99.90;;;;;;5088271;28;20321;-56
2022/01/19 02:55:36;;;;;;;12.03;9.03;;;4.30;99.90;;;;;;5093193;28;20204;-56
2022/01/19 02:58:03;;;;;;;17.43;9.33;;;4.40;99.90;;;;;;5091459;28;20228;-58
2022/01/19 03:08:42;;;;;;;16.10;9.63;;;4.50;99.90;;;;;;5088074;28;20249;-56
2022/01/19 03:09:04;;;;;;;16.07;10.17;;;4.50;99.90;;;;;;5091534;28;20233;-57
2022/01/19 03:11:31;;;;;;;19.40;10.90;;;4.40;99.90;;;;;;5092540;28;20215;-57
2022/01/19 03:13:58;;;;;;;19.80;12.17;;;4.50;99.90;;;;;;5089490;28;20219;-57
2022/01/19 03:16:25;;;;;;;20.43;11.57;;;4.50;99.90;;;;;;5088790;28;20226;-56
2022/01/19 03:18:52;;;;;;;24.40;12.47;;;4.40;99.90;;;;;;5086023;28;20199;-57
2022/01/19 03:21:19;;;;;;;17.93;10.80;;;4.40;99.90;;;;;;5088743;28;20202;-56
2022/01/19 03:23:46;;;;;;;15.77;9.87;;;4.40;99.90;;;;;;5089357;28;20200;-57
2022/01/19 03:26:13;;;;;;;16.87;9.67;;;4.00;99.90;;;;;;5092497;28;20313;-57
2022/01/19 03:28:40;;;;;;;16.00;10.03;;;3.90;99.90;;;;;;5088914;28;20213;-56
2022/01/19 03:31:07;;;;;;;15.83;9.47;;;4.00;99.90;;;;;;5092517;28;20248;-55
2022/01/19 03:33:34;;;;;;;19.40;10.00;;;4.00;99.90;;;;;;5090432;28;20691;-56
2022/01/19 03:36:01;;;;;;;16.90;10.67;;;3.90;99.90;;;;;;5085379;28;20237;-58
2022/01/19 03:38:28;;;;;;;14.20;9.40;;;3.70;99.90;;;;;;5084830;28;20226;-56
2022/01/19 03:40:55;;;;;;;14.57;8.37;;;3.70;99.90;;;;;;5087142;28;20747;-57
2022/01/19 03:43:22;;;;;;;18.97;11.80;;;3.60;99.90;;;;;;5084058;28;20231;-57
2022/01/19 03:45:53;;;;;;;16.63;10.13;;;3.80;99.90;;;;;;5076822;28;20254;-56
2022/01/19 03:51:06;;;;;;;19.60;11.10;;;3.80;99.90;;;;;;5072942;28;20203;-57
2022/01/19 03:53:33;;;;;;;24.37;12.23;;;3.80;99.90;;;;;;5073997;28;20221;-57
2022/01/19 03:56:01;;;;;;;19.43;12.33;;;3.70;99.90;;;;;;5073056;28;20244;-56
2022/01/19 03:58:28;;;;;;;21.70;13.10;;;3.80;99.90;;;;;;5077594;28;20676;-57
2022/01/19 04:00:57;;;;;;;20.63;12.53;;;3.60;99.90;;;;;;5076913;28;20226;-56
2022/01/19 04:06:23;;;;;;;26.07;12.60;;;3.60;99.90;;;;;;5076463;28;20327;-57
2022/01/19 04:08:50;;;;;;;25.23;12.87;;;3.60;99.90;;;;;;5075268;28;20230;-57
2022/01/19 04:11:20;;;;;;;18.90;11.73;;;3.70;99.90;;;;;;5077524;28;20208;-58
2022/01/19 04:16:23;;;;;;;22.00;11.60;;;3.90;99.90;;;;;;5073729;28;20218;-57
2022/01/19 04:18:58;;;;;;;21.50;12.37;;;4.00;99.90;;;;;;5075638;28;20204;-55
2022/01/19 04:21:25;;;;;;;22.53;12.53;;;3.90;99.90;;;;;;5076834;28;20306;-60
2022/01/19 04:23:51;;;;;;;21.93;13.03;;;3.90;99.90;;;;;;5071424;28;20234;-57
2022/01/19 04:26:18;;;;;;;21.40;11.53;;;3.90;99.90;;;;;;5075869;28;20840;-56
2022/01/19 04:28:45;;;;;;;22.37;12.60;;;3.90;99.90;;;;;;5073812;28;20268;-57
2022/01/19 04:31:12;;;;;;;18.53;11.37;;;4.00;99.90;;;;;;5074598;28;20204;-57
2022/01/19 04:33:43;;;;;;;22.47;13.20;;;4.00;99.90;;;;;;5074197;28;20215;-55
2022/01/19 04:44:35;;;;;;;20.90;12.00;;;3.60;99.90;;;;;;5076012;28;20238;-56
2022/01/19 05:06:02;;;;;;;23.70;13.50;;;3.00;99.90;;;;;;5073601;28;20206;-56
2022/01/19 05:13:50;;;;;;;24.83;12.90;;;3.00;99.90;;;;;;5073767;28;20226;-61
2022/01/19 05:16:19;;;;;;;27.87;14.63;;;2.90;99.90;;;;;;5076662;28;20202;-56
2022/01/19 05:18:47;;;;;;;33.30;16.40;;;2.80;99.90;;;;;;5075494;28;20248;-57
2022/01/19 05:21:15;;;;;;;38.13;16.40;;;2.50;99.90;;;;;;5075170;28;20238;-57
2022/01/19 05:23:42;;;;;;;37.77;16.83;;;2.50;99.90;;;;;;5058922;28;20234;-57
2022/01/19 05:26:09;;;;;;;43.53;17.37;;;2.30;99.90;;;;;;5073297;28;20311;-57
2022/01/19 05:28:37;;;;;;;38.97;16.60;;;2.40;99.90;;;;;;5078410;28;20202;-56
2022/01/19 05:31:04;;;;;;;36.60;18.47;;;2.20;99.90;;;;;;5075339;28;20326;-57
2022/01/19 05:33:31;;;;;;;38.43;18.27;;;2.10;99.90;;;;;;5076552;28;20207;-58
2022/01/19 05:35:58;;;;;;;35.83;17.07;;;2.20;99.90;;;;;;5074603;28;20230;-59
2022/01/19 05:38:25;;;;;;;36.40;16.60;;;2.10;99.90;;;;;;5076034;28;20847;-58
2022/01/19 05:40:52;;;;;;;31.97;15.93;;;2.20;99.90;;;;;;5072797;28;20218;-58
2022/01/19 05:43:19;;;;;;;35.30;16.87;;;2.40;99.90;;;;;;5076894;28;20596;-56
2022/01/19 05:45:46;;;;;;;33.57;17.37;;;2.30;99.90;;;;;;5071011;28;20243;-58
2022/01/19 05:48:13;;;;;;;35.63;16.13;;;2.30;99.90;;;;;;5075378;28;20199;-56
2022/01/19 05:50:39;;;;;;;33.50;16.67;;;2.30;99.90;;;;;;5075065;28;20731;-55
2022/01/19 05:53:06;;;;;;;36.77;18.13;;;2.10;99.90;;;;;;5075189;28;20293;-58
2022/01/19 05:55:33;;;;;;;35.57;16.40;;;2.20;99.90;;;;;;5074477;28;20272;-57
2022/01/19 05:58:00;;;;;;;32.00;14.97;;;2.20;99.90;;;;;;5076955;28;20200;-56
2022/01/19 06:00:27;;;;;;;36.63;16.83;;;2.20;99.90;;;;;;5074220;28;20690;-61
2022/01/19 06:02:54;;;;;;;37.37;17.13;;;2.30;99.90;;;;;;5074119;28;20206;-56
2022/01/19 06:05:21;;;;;;;33.40;16.50;;;2.30;99.90;;;;;;5065914;28;20660;-55
2022/01/19 06:07:49;;;;;;;30.53;17.00;;;2.30;99.90;;;;;;5079236;28;20668;-56
2022/01/19 06:11:01;;;;;;;31.53;16.20;;;2.20;99.90;;;;;;5078792;28;20409;-58
2022/01/19 06:13:02;;;;;;;29.47;16.53;;;2.30;99.90;;;;;;5072255;28;20203;-56
2022/01/19 06:15:29;;;;;;;30.20;16.13;;;2.20;99.90;;;;;;5077935;28;20284;-57
2022/01/19 06:17:56;;;;;;;31.90;15.40;;;2.20;99.90;;;;;;5077168;28;20207;-56
2022/01/19 06:20:23;;;;;;;33.83;15.37;;;2.30;99.90;;;;;;5077780;28;20245;-56
2022/01/19 06:22:50;;;;;;;34.47;16.80;;;2.20;99.90;;;;;;5076723;28;20289;-57
2022/01/19 06:25:17;;;;;;;30.60;16.70;;;2.20;99.90;;;;;;5077450;28;20414;-56
2022/01/19 06:27:44;;;;;;;31.40;15.77;;;2.30;99.90;;;;;;5076636;28;20253;-56
2022/01/19 06:30:12;;;;;;;37.37;17.17;;;2.50;99.90;;;;;;5060598;28;20289;-54
2022/01/19 06:32:40;;;;;;;38.43;18.17;;;2.40;99.90;;;;;;5078220;28;20293;-56
2022/01/19 06:35:08;;;;;;;32.63;17.10;;;2.50;99.90;;;;;;5077093;28;21835;-56
2022/01/19 06:37:35;;;;;;;36.20;19.03;;;2.50;99.90;;;;;;5077731;28;20206;-55
2022/01/19 06:40:08;;;;;;;35.47;17.87;;;2.70;99.90;;;;;;5079138;28;20199;-56
2022/01/19 06:42:35;;;;;;;40.77;16.80;;;2.60;99.90;;;;;;5073656;28;20637;-55
2022/01/19 06:45:03;;;;;;;32.13;16.83;;;2.70;99.90;;;;;;5073783;28;20241;-55
2022/01/19 06:47:31;;;;;;;41.47;18.27;;;2.80;99.90;;;;;;5064479;28;20226;-56
2022/01/19 06:49:58;;;;;;;35.70;17.43;;;2.80;99.90;;;;;;5081972;28;20214;-56
2022/01/19 06:52:25;;;;;;;32.13;17.83;;;2.80;99.90;;;;;;5081430;28;20685;-56
2022/01/19 06:54:52;;;;;;;43.40;19.30;;;2.90;99.90;;;;;;5080235;28;20749;-57
2022/01/19 06:57:19;;;;;;;35.20;18.80;;;3.10;99.90;;;;;;5075561;28;20663;-56
2022/01/19 06:59:46;;;;;;;32.83;16.90;;;3.10;99.90;;;;;;5074965;28;20207;-56
2022/01/19 07:02:12;;;;;;;32.27;17.00;;;3.20;99.90;;;;;;5072641;28;20609;-55
2022/01/19 07:04:47;;;;;;;33.93;18.07;;;3.20;99.90;;;;;;5072124;28;20199;-55
2022/01/19 07:07:14;;;;;;;34.13;17.40;;;3.30;99.90;;;;;;5075836;28;20211;-57
2022/01/19 07:09:41;;;;;;;33.70;17.97;;;3.20;99.90;;;;;;5039702;28;20782;-58
2022/01/19 07:12:08;;;;;;;36.40;18.83;;;3.20;99.90;;;;;;5077695;28;21101;-57
2022/01/19 07:14:35;;;;;;;32.17;17.03;;;3.20;99.90;;;;;;5077156;28;20307;-57
2022/01/19 07:17:02;;;;;;;34.83;17.03;;;3.40;99.90;;;;;;5078600;28;20299;-58
2022/01/19 07:19:29;;;;;;;33.30;17.13;;;3.30;99.90;;;;;;5077599;28;20392;-56
2022/01/19 07:21:56;;;;;;;36.67;16.77;;;3.40;99.90;;;;;;5072767;28;20211;-57
2022/01/19 07:24:23;;;;;;;30.37;17.13;;;3.20;99.90;;;;;;5071183;28;20276;-56
2022/01/19 07:26:50;;;;;;;34.30;15.70;;;3.30;99.90;;;;;;5055369;28;21224;-60
2022/01/19 07:29:17;;;;;;;25.93;14.77;;;3.20;99.90;;;;;;5074878;28;20207;-54
2022/01/19 07:31:44;;;;;;;28.90;15.37;;;3.30;99.90;;;;;;5075418;28;20617;-55
2022/01/19 07:34:11;;;;;;;29.00;16.73;;;3.30;99.90;;;;;;5071975;28;20214;-55
2022/01/19 07:36:37;;;;;;;26.73;14.10;;;3.30;99.90;;;;;;5068386;28;20231;-57
2022/01/19 07:39:05;;;;;;;25.17;15.13;;;3.20;99.90;;;;;;5069487;28;20197;-57
2022/01/19 07:41:32;;;;;;;26.67;14.70;;;3.30;99.90;;;;;;5056883;28;20890;-57
2022/01/19 07:43:58;;;;;;;23.30;14.00;;;3.30;99.90;;;;;;5068755;28;20288;-57
2022/01/19 07:46:25;;;;;;;30.00;15.87;;;3.30;99.90;;;;;;5076388;28;20587;-57
2022/01/19 07:48:53;;;;;;;24.10;14.37;;;3.20;99.90;;;;;;5074633;28;20211;-58
2022/01/19 07:51:19;;;;;;;25.93;15.43;;;3.20;99.90;;;;;;5057112;28;20612;-57
2022/01/19 07:53:46;;;;;;;26.80;15.23;;;3.40;99.90;;;;;;5075482;28;20647;-57
2022/01/19 07:56:13;;;;;;;29.03;15.63;;;3.40;99.90;;;;;;5078068;28;20592;-57
2022/01/19 07:58:40;;;;;;;26.47;14.80;;;3.40;99.90;;;;;;5078379;28;20583;-56
2022/01/19 08:01:07;;;;;;;26.57;15.23;;;3.20;99.90;;;;;;5076739;28;20216;-57
2022/01/19 08:03:34;;;;;;;26.70;15.43;;;3.30;99.90;;;;;;5075916;28;20197;-55
2022/01/19 08:06:05;;;;;;;26.40;14.53;;;3.40;99.90;;;;;;5073244;28;20262;-58
2022/01/19 08:08:32;;;;;;;27.43;16.37;;;3.20;99.90;;;;;;5046744;28;20228;-57
2022/01/19 08:10:59;;;;;;;28.77;14.93;;;3.40;99.90;;;;;;5074832;28;20589;-59
2022/01/19 08:13:25;;;;;;;26.83;14.93;;;3.30;99.90;;;;;;5078251;28;20290;-58
2022/01/19 08:15:52;;;;;;;25.40;14.97;;;3.20;99.90;;;;;;5077899;28;20244;-58
2022/01/19 08:18:19;;;;;;;25.07;14.67;;;3.30;99.90;;;;;;5074223;28;20306;-56
2022/01/19 08:20:46;;;;;;;27.60;14.30;;;3.30;99.90;;;;;;5072115;28;20294;-56
2022/01/19 08:23:13;;;;;;;27.10;14.60;;;3.20;99.90;;;;;;5042408;28;20199;-58
2022/01/19 08:25:39;;;;;;;23.13;13.63;;;3.30;99.90;;;;;;5076651;28;20214;-56
2022/01/19 08:28:06;;;;;;;30.03;15.07;;;3.20;99.90;;;;;;5081449;28;20282;-58
2022/01/19 08:30:33;;;;;;;25.67;14.20;;;3.20;99.90;;;;;;5077722;28;20667;-58
2022/01/19 08:33:00;;;;;;;30.93;15.30;;;3.30;99.90;;;;;;5074635;28;20851;-55
2022/01/19 08:35:27;;;;;;;24.67;13.80;;;3.30;99.90;;;;;;5074754;28;20671;-58
2022/01/19 08:37:54;;;;;;;28.67;14.57;;;3.40;99.90;;;;;;5080350;28;20340;-56
2022/01/19 08:40:26;;;;;;;27.93;14.17;;;3.30;99.90;;;;;;5077336;28;20233;-58
2022/01/19 08:42:54;;;;;;;26.93;14.67;;;3.40;99.90;;;;;;5078264;28;20542;-57
2022/01/19 08:45:22;;;;;;;24.93;14.80;;;3.40;99.90;;;;;;5077112;28;21020;-58
2022/01/19 08:47:50;;;;;;;28.10;14.27;;;3.50;99.90;;;;;;5079165;28;20674;-58
2022/01/19 08:50:18;;;;;;;25.60;14.37;;;3.50;99.90;;;;;;5077259;28;20565;-57
2022/01/19 08:52:46;;;;;;;28.40;15.60;;;3.40;99.90;;;;;;5080865;28;20208;-57
2022/01/19 08:55:14;;;;;;;28.90;14.80;;;3.50;99.90;;;;;;5080158;28;20524;-57
2022/01/19 08:57:41;;;;;;;27.10;15.00;;;3.40;99.90;;;;;;5076660;28;20260;-58
2022/01/19 09:00:10;;;;;;;25.93;14.23;;;3.40;99.90;;;;;;5082339;28;20241;-58
2022/01/19 09:02:37;;;;;;;25.33;14.53;;;3.50;99.90;;;;;;5057482;28;20195;-58
2022/01/19 09:05:06;;;;;;;25.53;14.20;;;3.70;99.90;;;;;;5068590;28;20670;-57
2022/01/19 09:07:33;;;;;;;26.30;14.73;;;3.70;99.90;;;;;;5074481;28;20565;-56
2022/01/19 09:10:00;;;;;;;21.40;13.47;;;3.60;99.90;;;;;;5073734;28;20306;-57
2022/01/19 09:12:27;;;;;;;25.77;14.90;;;3.60;99.90;;;;;;5070783;28;20293;-56
2022/01/19 09:14:54;;;;;;;25.50;14.43;;;3.60;99.90;;;;;;5067819;28;20241;-57
2022/01/19 09:17:21;;;;;;;25.57;14.37;;;3.70;99.90;;;;;;5076608;28;20210;-57
2022/01/19 09:19:48;;;;;;;24.73;14.17;;;3.80;99.90;;;;;;5074348;28;20303;-59
2022/01/19 09:22:15;;;;;;;22.37;14.17;;;3.70;99.90;;;;;;5080218;28;20309;-58
2022/01/19 09:24:42;;;;;;;25.07;13.93;;;3.70;99.90;;;;;;5082572;28;20617;-55
2022/01/19 09:27:10;;;;;;;23.77;14.60;;;3.70;99.90;;;;;;5075563;28;20703;-59
2022/01/19 09:29:40;;;;;;;22.30;12.73;;;3.80;99.90;;;;;;5076229;28;20642;-58
2022/01/19 09:32:11;;;;;;;23.97;12.93;;;3.70;99.90;;;;;;5072844;28;20229;-58
2022/01/19 09:34:42;;;;;;;25.43;14.70;;;3.70;99.90;;;;;;5072861;28;20883;-58
2022/01/19 09:37:10;;;;;;;23.37;14.40;;;3.70;99.90;;;;;;5076912;28;20216;-59
2022/01/19 09:39:36;;;;;;;24.63;14.57;;;3.80;99.90;;;;;;5061262;28;20666;-59
2022/01/19 09:42:04;;;;;;;23.93;14.40;;;3.80;99.90;;;;;;5081314;28;20207;-56
2022/01/19 09:44:31;;;;;;;25.10;13.30;;;3.70;99.90;;;;;;5079228;28;20627;-56
2022/01/19 09:46:58;;;;;;;20.53;13.17;;;3.70;99.90;;;;;;5078728;28;20227;-59
2022/01/19 09:49:26;;;;;;;23.63;14.30;;;3.80;99.90;;;;;;5073140;28;20222;-56
2022/01/19 09:51:54;;;;;;;18.53;12.03;;;3.90;99.90;;;;;;5078748;28;20702;-57
2022/01/19 09:54:23;;;;;;;20.60;12.97;;;3.90;99.90;;;;;;5082239;28;20600;-57
2022/01/19 09:56:51;;;;;;;23.60;13.23;;;3.90;99.90;;;;;;5078210;28;20234;-58
2022/01/19 09:59:20;;;;;;;20.40;13.03;;;4.00;99.90;;;;;;5063314;28;20606;-57
2022/01/19 10:02:01;;;;;;;22.80;12.97;;;4.00;99.90;;;;;;5078866;28;20191;-58
2022/01/19 10:04:32;;;;;;;20.37;12.40;;;4.10;99.90;;;;;;5078040;28;20211;-58
2022/01/19 10:07:29;;;;;;;20.27;11.80;;;4.00;99.90;;;;;;5058658;28;20248;-56
2022/01/19 10:10:07;;;;;;;22.77;12.50;;;3.90;99.90;;;;;;5061097;28;20252;-57
2022/01/19 10:18:33;;;;;;;20.80;12.37;;;4.10;99.90;;;;;;5079170;28;20300;-57
2022/01/19 10:21:13;;;;;;;20.90;12.80;;;4.10;99.90;;;;;;5080214;28;20289;-56
2022/01/19 10:23:52;;;;;;;23.60;12.87;;;4.10;99.90;;;;;;5073696;28;20207;-57
2022/01/19 10:26:30;;;;;;;21.30;13.27;;;4.10;99.90;;;;;;5063460;28;20203;-57
2022/01/19 10:29:04;;;;;;;21.40;12.73;;;4.10;99.90;;;;;;5080189;28;20291;-58
2022/01/19 10:31:34;;;;;;;22.80;13.43;;;4.20;99.90;;;;;;5080881;28;20704;-58
2022/01/19 10:34:18;;;;;;;19.00;13.13;;;4.20;99.90;;;;;;5078863;28;20790;-62
2022/01/19 10:36:44;;;;;;;23.47;13.00;;;4.20;99.90;;;;;;5059083;28;20279;-59
2022/01/19 10:39:13;;;;;;;22.30;12.77;;;4.20;99.90;;;;;;5076199;28;20650;-60
2022/01/19 10:42:03;;;;;;;18.13;11.37;;;4.20;99.90;;;;;;5079550;28;20249;-59
2022/01/19 10:44:32;;;;;;;22.27;12.37;;;4.30;99.90;;;;;;5075430;28;20912;-58
2022/01/19 10:47:36;;;;;;;18.23;11.83;;;4.30;99.90;;;;;;5080233;28;20629;-58
2022/01/19 10:50:03;;;;;;;20.83;13.87;;;4.30;99.90;;;;;;5062500;28;20210;-58
2022/01/19 10:52:40;;;;;;;20.80;12.77;;;4.20;99.90;;;;;;5078149;28;20245;-57
2022/01/19 10:55:20;;;;;;;20.53;12.77;;;4.30;99.90;;;;;;5059410;28;20302;-57
2022/01/19 10:57:48;;;;;;;21.67;13.17;;;4.30;99.90;;;;;;5078927;28;20298;-59
2022/01/19 11:00:21;;;;;;;22.53;14.07;;;4.20;99.90;;;;;;5077339;28;20198;-58
2022/01/19 11:02:50;;;;;;;22.37;13.23;;;4.30;99.90;;;;;;5080736;28;20191;-58
2022/01/19 11:05:41;;;;;;;19.77;13.67;;;4.30;99.90;;;;;;5079607;28;20740;-60
2022/01/19 11:08:08;;;;;;;21.37;13.30;;;4.30;99.90;;;;;;5078284;28;20198;-57
2022/01/19 11:10:36;;;;;;;23.93;14.57;;;4.50;99.90;;;;;;5062124;28;20307;-58
2022/01/19 11:13:05;;;;;;;23.30;14.40;;;4.50;99.90;;;;;;5076798;28;20650;-58
2022/01/19 11:15:32;;;;;;;22.97;13.63;;;4.50;99.90;;;;;;5081315;28;20275;-58
2022/01/19 11:17:59;;;;;;;23.27;13.83;;;4.40;99.90;;;;;;5072966;28;20224;-58
2022/01/19 11:20:27;;;;;;;21.50;14.07;;;4.40;99.90;;;;;;5077068;28;20277;-57
2022/01/19 11:23:02;;;;;;;23.73;14.00;;;4.50;99.90;;;;;;5078752;28;20299;-57
2022/01/19 11:25:51;;;;;;;21.27;14.17;;;4.50;99.90;;;;;;5074233;28;20209;-57
2022/01/19 11:28:25;;;;;;;25.07;13.57;;;4.60;99.90;;;;;;5077709;28;20229;-59
2022/01/19 11:30:53;;;;;;;21.40;14.27;;;4.50;99.90;;;;;;5054415;28;20289;-57
2022/01/19 11:33:28;;;;;;;24.27;14.03;;;4.50;99.90;;;;;;5078279;28;20215;-58
2022/01/19 11:36:04;;;;;;;20.97;13.67;;;4.50;99.90;;;;;;5077079;28;20215;-58
2022/01/19 11:38:44;;;;;;;22.07;13.37;;;4.60;99.90;;;;;;5074723;28;20199;-58
2022/01/19 11:41:14;;;;;;;25.60;15.00;;;4.60;99.90;;;;;;5076442;28;20232;-58
2022/01/19 11:43:56;;;;;;;28.00;15.70;;;4.60;99.90;;;;;;5077804;28;20356;-59
2022/01/19 11:46:26;;;;;;;24.20;14.27;;;4.70;99.90;;;;;;5071241;28;20318;-58
2022/01/19 11:48:53;;;;;;;21.90;14.57;;;4.70;99.90;;;;;;5082247;28;20194;-58
2022/01/19 11:51:25;;;;;;;22.50;14.87;;;4.80;99.90;;;;;;5074208;28;20729;-54
2022/01/19 11:53:59;;;;;;;24.77;15.03;;;4.70;99.90;;;;;;5058459;28;20268;-57
2022/01/19 11:56:26;;;;;;;28.83;15.93;;;4.70;99.90;;;;;;5079383;28;20223;-57
2022/01/19 11:59:03;;;;;;;25.17;15.23;;;4.70;99.90;;;;;;5077717;28;20195;-57
2022/01/19 12:01:30;;;;;;;28.73;14.90;;;4.60;99.90;;;;;;5076294;28;20241;-57
2022/01/19 12:04:18;;;;;;;29.20;16.20;;;4.70;99.90;;;;;;5074176;28;21003;-56
2022/01/19 12:06:47;;;;;;;29.17;16.77;;;4.70;99.90;;;;;;5076886;28;20207;-57
2022/01/19 12:09:16;;;;;;;28.17;15.17;;;4.80;99.90;;;;;;5077524;28;20317;-58
2022/01/19 12:11:52;;;;;;;30.33;16.60;;;4.90;99.90;;;;;;5073214;28;20647;-56
2022/01/19 12:14:33;;;;;;;27.40;15.60;;;5.00;99.90;;;;;;5077174;28;20202;-56
2022/01/19 12:17:09;;;;;;;29.63;16.33;;;5.00;99.90;;;;;;5079457;28;20289;-58
2022/01/19 12:19:39;;;;;;;26.27;16.43;;;5.00;99.90;;;;;;5079767;28;20306;-58
2022/01/19 12:22:27;;;;;;;26.23;17.87;;;4.90;99.90;;;;;;5078123;28;20207;-54
2022/01/19 12:25:06;;;;;;;29.80;16.80;;;4.90;99.90;;;;;;5059828;28;20248;-56
2022/01/19 12:27:36;;;;;;;29.60;18.33;;;4.90;99.90;;;;;;5064173;28;20209;-56
2022/01/19 12:30:14;;;;;;;29.43;16.83;;;4.90;99.90;;;;;;5081511;28;20302;-57
2022/01/19 12:32:51;;;;;;;28.17;15.87;;;4.90;99.90;;;;;;5076264;28;20213;-58
2022/01/19 12:35:22;;;;;;;28.43;17.23;;;4.90;99.90;;;;;;5079890;28;20198;-57
2022/01/19 12:37:52;;;;;;;30.27;16.80;;;4.90;99.90;;;;;;5062693;28;20200;-57
2022/01/19 12:40:19;;;;;;;31.40;18.40;;;5.00;99.90;;;;;;5080424;28;20199;-56
2022/01/19 12:42:54;;;;;;;29.97;18.13;;;5.00;99.90;;;;;;5074000;28;20354;-58
2022/01/19 12:45:47;;;;;;;32.13;17.77;;;5.10;99.90;;;;;;5079714;28;20234;-54
2022/01/19 12:48:40;;;;;;;27.73;17.30;;;5.10;99.90;;;;;;5066811;28;20748;-59
2022/01/19 12:51:27;;;;;;;30.93;18.20;;;5.00;99.90;;;;;;5077038;28;20200;-55
2022/01/19 12:53:54;;;;;;;28.93;18.10;;;5.10;99.90;;;;;;5076597;28;20269;-58
2022/01/19 12:56:58;;;;;;;27.50;16.40;;;5.10;99.90;;;;;;5078453;28;20688;-57
2022/01/19 12:59:26;;;;;;;30.03;17.43;;;5.20;99.90;;;;;;5078381;28;20273;-58
2022/01/19 13:01:53;;;;;;;28.73;18.37;;;5.20;99.90;;;;;;5060976;28;20195;-58
2022/01/19 13:04:30;;;;;;;34.70;17.87;;;5.20;99.90;;;;;;5074741;28;20200;-55
2022/01/19 13:07:19;;;;;;;30.10;17.67;;;5.10;99.90;;;;;;5059840;28;20269;-57
2022/01/19 13:12:55;;;;;;;26.90;16.93;;;5.30;99.90;;;;;;5076628;28;20672;-56
2022/01/19 13:15:23;;;;;;;30.47;18.00;;;5.30;99.90;;;;;;5078379;28;20245;-56
2022/01/19 13:17:52;;;;;;;33.50;18.63;;;5.30;99.90;;;;;;5080916;28;20301;-54
2022/01/19 13:20:22;;;;;;;28.40;17.87;;;5.30;99.90;;;;;;5079124;28;20199;-57
2022/01/19 13:22:51;;;;;;;25.13;16.60;;;5.20;99.90;;;;;;5077844;28;20326;-60
2022/01/19 13:25:28;;;;;;;30.57;16.90;;;5.20;99.90;;;;;;5078739;28;20294;-58
2022/01/19 13:27:58;;;;;;;29.17;17.23;;;5.30;99.90;;;;;;5081673;28;20271;-58
2022/01/19 13:30:28;;;;;;;31.23;17.40;;;5.30;99.90;;;;;;5080145;28;20285;-57
2022/01/19 13:32:55;;;;;;;27.53;17.30;;;5.30;99.90;;;;;;5081133;28;20204;-56
2022/01/19 13:35:24;;;;;;;29.30;16.63;;;5.20;99.90;;;;;;5075584;28;20731;-58
2022/01/19 13:37:58;;;;;;;27.47;16.73;;;5.20;99.90;;;;;;5078908;28;20202;-55
2022/01/19 13:40:31;;;;;;;29.13;16.40;;;5.30;99.90;;;;;;5062678;28;20196;-55
2022/01/19 13:43:08;;;;;;;29.17;17.57;;;5.30;99.90;;;;;;5076755;28;20875;-56
2022/01/19 13:50:45;;;;;;;34.93;16.93;;;5.30;99.90;;;;;;5074999;28;20290;-58
2022/01/19 13:53:13;;;;;;;28.83;14.87;;;5.30;99.90;;;;;;5081221;28;20256;-57
2022/01/19 13:55:41;;;;;;;26.63;16.77;;;5.20;99.90;;;;;;5077643;28;20226;-58
2022/01/19 13:58:11;;;;;;;24.40;16.20;;;5.30;99.90;;;;;;5076220;28;20245;-57
2022/01/19 14:00:50;;;;;;;27.07;17.17;;;5.30;99.90;;;;;;5059859;28;20754;-56
2022/01/19 14:03:19;;;;;;;28.17;16.97;;;5.30;99.90;;;;;;5075542;28;20225;-58
2022/01/19 14:05:52;;;;;;;31.27;16.67;;;5.30;99.90;;;;;;5077335;28;20366;-58
2022/01/19 14:08:31;;;;;;;29.57;17.10;;;5.30;99.90;;;;;;5076847;28;20846;-58
2022/01/19 14:11:00;;;;;;;31.80;16.80;;;5.40;99.90;;;;;;5071031;28;20191;-57
2022/01/19 14:13:33;;;;;;;27.20;16.30;;;5.30;99.90;;;;;;5079867;28;20299;-58
2022/01/19 14:16:20;;;;;;;25.47;15.73;;;5.40;99.90;;;;;;5077385;28;20947;-57
2022/01/19 14:19:07;;;;;;;27.80;17.37;;;5.40;99.90;;;;;;5074747;28;20199;-58
2022/01/19 14:21:35;;;;;;;29.00;17.27;;;5.40;99.90;;;;;;5074979;28;20258;-56
2022/01/19 14:24:02;;;;;;;24.50;15.03;;;5.30;99.90;;;;;;5059489;28;20201;-56
2022/01/19 14:26:29;;;;;;;28.97;17.00;;;5.30;99.90;;;;;;5079823;28;20226;-59
2022/01/19 14:29:14;;;;;;;28.03;16.93;;;5.30;99.90;;;;;;5074990;28;20211;-57
2022/01/19 14:31:55;;;;;;;26.47;16.23;;;5.30;99.90;;;;;;5075345;28;20725;-55
2022/01/19 14:34:42;;;;;;;28.63;15.87;;;5.30;99.90;;;;;;5069074;28;20294;-56
2022/01/19 14:37:19;;;;;;;30.50;16.70;;;5.30;99.90;;;;;;5075730;28;20213;-58